sensor_id;sensor_type;location;lat;lon;timestamp;pressure;altitude;pressure_sealevel;temperature;humidity
11395;BME280;5753;54.402;10.220;2022-11-04T00:01:21;100139.03;;;19.05;44.74
11395;BME280;5753;54.402;10.220;2022-11-04T00:03:47;100142.72;;;19.81;43.16
11395;BME280;5753;54.402;10.220;2022-11-04T00:06:14;100142.56;;;19.60;43.79
11395;BME280;5753;54.402;10.220;2022-11-04T00:08:40;100133.81;;;19.61;43.89
11395;BME280;5753;54.402;10.220;2022-11-04T00:11:06;100132.72;;;19.40;44.52
11395;BME280;5753;54.402;10.220;2022-11-04T00:13:56;100126.31;;;20.03;43.04
11395;BME280;5753;54.402;10.220;2022-11-04T00:16:23;100124.34;;;20.83;41.47
11395;BME280;5753;54.402;10.220;2022-11-04T00:19:07;100116.94;;;20.47;41.99
11395;BME280;5753;54.402;10.220;2022-11-04T00:21:33;100121.72;;;20.34;42.13
11395;BME280;5753;54.402;10.220;2022-11-04T00:24:18;100114.13;;;20.27;42.41
11395;BME280;5753;54.402;10.220;2022-11-04T00:27:03;100108.06;;;20.51;41.75
11395;BME280;5753;54.402;10.220;2022-11-04T00:29:47;100097.06;;;21.10;40.88
11395;BME280;5753;54.402;10.220;2022-11-04T00:32:13;100103.59;;;20.53;42.12
11395;BME280;5753;54.402;10.220;2022-11-04T00:34:58;100080.31;;;20.69;41.64
11395;BME280;5753;54.402;10.220;2022-11-04T00:37:25;100087.75;;;19.83;43.58
11395;BME280;5753;54.402;10.220;2022-11-04T00:39:51;100080.50;;;20.41;41.99
11395;BME280;5753;54.402;10.220;2022-11-04T00:42:17;100087.44;;;19.92;43.61
11395;BME280;5753;54.402;10.220;2022-11-04T00:44:43;100090.75;;;20.47;42.88
11395;BME280;5753;54.402;10.220;2022-11-04T00:47:09;100085.72;;;20.88;41.46
11395;BME280;5753;54.402;10.220;2022-11-04T00:49:35;100080.59;;;20.85;41.71
11395;BME280;5753;54.402;10.220;2022-11-04T00:52:01;100080.84;;;20.55;42.05
11395;BME280;5753;54.402;10.220;2022-11-04T00:54:28;100077.34;;;21.45;40.65
11395;BME280;5753;54.402;10.220;2022-11-04T00:56:54;100086.25;;;19.76;44.15
11395;BME280;5753;54.402;10.220;2022-11-04T00:59:20;100092.22;;;20.54;42.84
11395;BME280;5753;54.402;10.220;2022-11-04T01:01:46;100082.75;;;20.73;42.05
11395;BME280;5753;54.402;10.220;2022-11-04T01:04:12;100076.03;;;20.66;42.39
11395;BME280;5753;54.402;10.220;2022-11-04T01:06:38;100082.88;;;20.94;41.92
11395;BME280;5753;54.402;10.220;2022-11-04T01:09:07;100085.19;;;20.78;42.40
11395;BME280;5753;54.402;10.220;2022-11-04T01:11:33;100083.09;;;20.88;41.82
11395;BME280;5753;54.402;10.220;2022-11-04T01:14:00;100077.69;;;21.14;41.38
11395;BME280;5753;54.402;10.220;2022-11-04T01:16:26;100069.88;;;20.91;41.51
11395;BME280;5753;54.402;10.220;2022-11-04T01:18:53;100068.66;;;20.54;42.74
11395;BME280;5753;54.402;10.220;2022-11-04T01:21:19;100053.03;;;19.78;44.94
11395;BME280;5753;54.402;10.220;2022-11-04T01:23:46;100058.25;;;20.53;43.26
11395;BME280;5753;54.402;10.220;2022-11-04T01:26:18;100050.50;;;20.01;44.60
11395;BME280;5753;54.402;10.220;2022-11-04T01:28:44;100046.41;;;20.18;44.71
11395;BME280;5753;54.402;10.220;2022-11-04T01:31:16;100046.69;;;20.33;44.49
11395;BME280;5753;54.402;10.220;2022-11-04T01:33:43;100038.47;;;20.67;43.86
11395;BME280;5753;54.402;10.220;2022-11-04T01:36:10;100048.63;;;20.53;44.26
11395;BME280;5753;54.402;10.220;2022-11-04T01:38:36;100039.28;;;21.13;42.99
11395;BME280;5753;54.402;10.220;2022-11-04T01:41:03;100034.66;;;21.42;42.57
11395;BME280;5753;54.402;10.220;2022-11-04T01:46:38;100028.88;;;20.90;43.01
11395;BME280;5753;54.402;10.220;2022-11-04T01:51:40;100012.25;;;21.75;41.76
11395;BME280;5753;54.402;10.220;2022-11-04T01:54:08;100008.72;;;21.35;42.64
11395;BME280;5753;54.402;10.220;2022-11-04T01:56:35;100000.97;;;21.53;42.14
11395;BME280;5753;54.402;10.220;2022-11-04T01:59:06;99996.31;;;21.59;41.93
11395;BME280;5753;54.402;10.220;2022-11-04T02:01:34;100006.63;;;21.44;42.63
11395;BME280;5753;54.402;10.220;2022-11-04T02:04:00;100005.88;;;20.74;44.22
11395;BME280;5753;54.402;10.220;2022-11-04T02:06:49;100006.88;;;20.94;43.92
11395;BME280;5753;54.402;10.220;2022-11-04T02:09:18;99995.16;;;20.81;43.96
11395;BME280;5753;54.402;10.220;2022-11-04T02:11:44;99990.09;;;20.31;44.90
11395;BME280;5753;54.402;10.220;2022-11-04T02:14:30;99992.44;;;19.92;45.90
11395;BME280;5753;54.402;10.220;2022-11-04T02:17:08;99987.69;;;20.93;43.69
11395;BME280;5753;54.402;10.220;2022-11-04T02:36:45;99987.81;;;20.90;44.04
11395;BME280;5753;54.402;10.220;2022-11-04T02:39:41;99992.97;;;20.48;45.27
11395;BME280;5753;54.402;10.220;2022-11-04T02:42:30;99999.59;;;19.87;46.62
11395;BME280;5753;54.402;10.220;2022-11-04T02:45:36;99996.75;;;20.41;45.89
11395;BME280;5753;54.402;10.220;2022-11-04T02:48:16;99995.09;;;20.13;46.40
11395;BME280;5753;54.402;10.220;2022-11-04T02:50:58;99996.13;;;20.33;46.17
11395;BME280;5753;54.402;10.220;2022-11-04T02:53:32;99982.69;;;20.65;44.69
11395;BME280;5753;54.402;10.220;2022-11-04T02:56:03;99983.97;;;20.08;46.26
11395;BME280;5753;54.402;10.220;2022-11-04T02:58:37;99989.31;;;20.74;45.25
11395;BME280;5753;54.402;10.220;2022-11-04T03:01:07;99989.19;;;20.08;47.79
11395;BME280;5753;54.402;10.220;2022-11-04T03:03:39;99976.22;;;19.31;49.47
11395;BME280;5753;54.402;10.220;2022-11-04T03:06:08;99978.72;;;19.34;50.11
11395;BME280;5753;54.402;10.220;2022-11-04T03:08:42;99981.09;;;21.05;45.82
11395;BME280;5753;54.402;10.220;2022-11-04T03:11:14;99981.13;;;20.83;46.62
11395;BME280;5753;54.402;10.220;2022-11-04T03:13:46;99981.66;;;20.69;47.05
11395;BME280;5753;54.402;10.220;2022-11-04T03:16:23;99977.59;;;20.39;47.34
11395;BME280;5753;54.402;10.220;2022-11-04T03:21:33;99962.56;;;20.21;48.34
11395;BME280;5753;54.402;10.220;2022-11-04T03:24:01;99973.84;;;20.46;47.70
11395;BME280;5753;54.402;10.220;2022-11-04T03:26:33;99972.03;;;20.70;46.71
11395;BME280;5753;54.402;10.220;2022-11-04T03:31:43;99977.63;;;20.61;47.02
11395;BME280;5753;54.402;10.220;2022-11-04T03:34:11;99977.78;;;20.33;47.60
11395;BME280;5753;54.402;10.220;2022-11-04T03:36:37;99979.47;;;20.12;47.86
11395;BME280;5753;54.402;10.220;2022-11-04T03:39:03;99971.44;;;20.85;46.51
11395;BME280;5753;54.402;10.220;2022-11-04T03:44:01;99975.38;;;20.95;46.48
11395;BME280;5753;54.402;10.220;2022-11-04T03:46:28;99979.16;;;20.66;46.14
11395;BME280;5753;54.402;10.220;2022-11-04T03:48:55;99981.41;;;19.82;48.70
11395;BME280;5753;54.402;10.220;2022-11-04T03:51:22;99977.38;;;20.67;46.45
11395;BME280;5753;54.402;10.220;2022-11-04T03:53:49;99974.72;;;19.75;48.58
11395;BME280;5753;54.402;10.220;2022-11-04T03:56:37;99981.53;;;20.72;46.29
11395;BME280;5753;54.402;10.220;2022-11-04T04:01:51;99974.75;;;20.45;47.02
11395;BME280;5753;54.402;10.220;2022-11-04T04:04:28;99974.50;;;20.28;47.55
11395;BME280;5753;54.402;10.220;2022-11-04T04:07:04;99967.06;;;20.17;47.75
11395;BME280;5753;54.402;10.220;2022-11-04T04:09:45;99974.47;;;19.81;48.00
11395;BME280;5753;54.402;10.220;2022-11-04T04:12:32;99978.16;;;20.00;48.45
11395;BME280;5753;54.402;10.220;2022-11-04T04:15:12;99970.84;;;20.32;47.50
11395;BME280;5753;54.402;10.220;2022-11-04T04:17:51;99981.31;;;19.85;49.01
11395;BME280;5753;54.402;10.220;2022-11-04T04:20:22;99977.47;;;19.95;48.36
11395;BME280;5753;54.402;10.220;2022-11-04T04:23:04;99979.06;;;19.49;50.06
11395;BME280;5753;54.402;10.220;2022-11-04T04:25:57;99973.22;;;19.68;49.68
11395;BME280;5753;54.402;10.220;2022-11-04T04:28:45;99963.00;;;20.32;47.78
11395;BME280;5753;54.402;10.220;2022-11-04T04:31:13;99980.94;;;19.19;50.62
11395;BME280;5753;54.402;10.220;2022-11-04T04:34:01;99973.00;;;19.74;49.60
11395;BME280;5753;54.402;10.220;2022-11-04T04:36:27;99964.41;;;19.45;50.75
11395;BME280;5753;54.402;10.220;2022-11-04T04:38:54;99950.50;;;20.17;49.06
11395;BME280;5753;54.402;10.220;2022-11-04T04:41:39;99939.56;;;20.52;48.08
11395;BME280;5753;54.402;10.220;2022-11-04T04:44:26;99938.25;;;19.21;52.05
11395;BME280;5753;54.402;10.220;2022-11-04T04:47:20;99933.50;;;19.32;51.04
11395;BME280;5753;54.402;10.220;2022-11-04T04:49:51;99939.34;;;19.65;50.33
11395;BME280;5753;54.402;10.220;2022-11-04T04:52:18;99936.72;;;19.90;50.11
11395;BME280;5753;54.402;10.220;2022-11-04T04:54:45;99936.72;;;19.65;50.63
11395;BME280;5753;54.402;10.220;2022-11-04T04:57:11;99930.47;;;19.19;52.40
11395;BME280;5753;54.402;10.220;2022-11-04T04:59:38;99940.88;;;18.94;53.12
11395;BME280;5753;54.402;10.220;2022-11-04T05:02:04;99941.81;;;19.93;50.73
11395;BME280;5753;54.402;10.220;2022-11-04T05:04:30;99950.59;;;19.67;51.35
11395;BME280;5753;54.402;10.220;2022-11-04T05:06:56;99956.00;;;19.62;52.03
11395;BME280;5753;54.402;10.220;2022-11-04T05:09:22;99963.50;;;19.46;52.37
11395;BME280;5753;54.402;10.220;2022-11-04T05:11:48;99974.38;;;18.52;54.35
11395;BME280;5753;54.402;10.220;2022-11-04T05:14:14;99969.22;;;18.78;54.37
11395;BME280;5753;54.402;10.220;2022-11-04T05:16:40;99976.28;;;19.56;52.94
11395;BME280;5753;54.402;10.220;2022-11-04T05:19:06;99977.13;;;19.03;53.75
11395;BME280;5753;54.402;10.220;2022-11-04T05:21:32;99975.25;;;19.33;53.55
11395;BME280;5753;54.402;10.220;2022-11-04T05:23:58;99985.91;;;20.03;51.51
11395;BME280;5753;54.402;10.220;2022-11-04T05:26:25;99988.19;;;19.11;54.16
11395;BME280;5753;54.402;10.220;2022-11-04T05:28:51;99992.31;;;19.70;53.02
11395;BME280;5753;54.402;10.220;2022-11-04T05:31:17;100001.59;;;20.95;49.70
11395;BME280;5753;54.402;10.220;2022-11-04T05:33:43;100001.56;;;18.74;54.45
11395;BME280;5753;54.402;10.220;2022-11-04T05:36:11;100007.22;;;19.68;52.85
11395;BME280;5753;54.402;10.220;2022-11-04T05:38:38;100002.69;;;19.20;54.89
11395;BME280;5753;54.402;10.220;2022-11-04T05:41:06;100013.34;;;18.58;57.17
11395;BME280;5753;54.402;10.220;2022-11-04T05:43:33;100011.63;;;18.57;57.06
11395;BME280;5753;54.402;10.220;2022-11-04T05:46:00;100019.16;;;18.07;58.84
11395;BME280;5753;54.402;10.220;2022-11-04T05:48:26;100025.69;;;18.53;56.61
11395;BME280;5753;54.402;10.220;2022-11-04T05:50:53;100027.00;;;18.68;56.34
11395;BME280;5753;54.402;10.220;2022-11-04T05:53:19;100036.06;;;19.12;55.28
11395;BME280;5753;54.402;10.220;2022-11-04T05:55:46;100037.41;;;18.38;57.92
11395;BME280;5753;54.402;10.220;2022-11-04T05:58:12;100042.22;;;19.36;55.47
11395;BME280;5753;54.402;10.220;2022-11-04T06:00:38;100046.88;;;18.72;56.66
11395;BME280;5753;54.402;10.220;2022-11-04T06:03:04;100043.16;;;19.61;54.70
11395;BME280;5753;54.402;10.220;2022-11-04T06:05:30;100056.97;;;17.91;60.92
11395;BME280;5753;54.402;10.220;2022-11-04T06:07:57;100061.41;;;18.51;59.51
11395;BME280;5753;54.402;10.220;2022-11-04T06:10:23;100070.88;;;19.12;57.03
11395;BME280;5753;54.402;10.220;2022-11-04T06:12:50;100069.44;;;18.12;60.00
11395;BME280;5753;54.402;10.220;2022-11-04T06:15:16;100066.97;;;18.70;58.48
11395;BME280;5753;54.402;10.220;2022-11-04T06:17:42;100075.66;;;19.26;55.58
11395;BME280;5753;54.402;10.220;2022-11-04T06:20:09;100065.53;;;19.43;54.23
11395;BME280;5753;54.402;10.220;2022-11-04T06:22:35;100068.06;;;19.98;52.69
11395;BME280;5753;54.402;10.220;2022-11-04T06:25:01;100072.78;;;19.88;52.07
11395;BME280;5753;54.402;10.220;2022-11-04T06:27:28;100087.44;;;17.89;57.81
11395;BME280;5753;54.402;10.220;2022-11-04T06:29:54;100072.69;;;19.37;55.06
11395;BME280;5753;54.402;10.220;2022-11-04T06:32:20;100096.25;;;18.79;55.50
11395;BME280;5753;54.402;10.220;2022-11-04T06:34:46;100091.28;;;18.39;56.51
11395;BME280;5753;54.402;10.220;2022-11-04T06:37:12;100091.63;;;19.17;53.52
11395;BME280;5753;54.402;10.220;2022-11-04T06:39:38;100077.59;;;18.92;54.56
11395;BME280;5753;54.402;10.220;2022-11-04T06:42:05;100080.97;;;18.35;55.82
11395;BME280;5753;54.402;10.220;2022-11-04T06:44:31;100087.31;;;19.70;51.92
11395;BME280;5753;54.402;10.220;2022-11-04T06:46:59;100103.38;;;17.41;58.24
11395;BME280;5753;54.402;10.220;2022-11-04T06:49:25;100095.06;;;18.62;55.21
11395;BME280;5753;54.402;10.220;2022-11-04T06:51:51;100094.84;;;19.25;52.12
11395;BME280;5753;54.402;10.220;2022-11-04T06:54:18;100091.50;;;18.94;53.13
11395;BME280;5753;54.402;10.220;2022-11-04T06:56:44;100089.41;;;20.10;49.34
11395;BME280;5753;54.402;10.220;2022-11-04T06:59:19;100111.00;;;19.38;50.80
11395;BME280;5753;54.402;10.220;2022-11-04T07:01:46;100110.72;;;19.19;50.85
11395;BME280;5753;54.402;10.220;2022-11-04T07:04:13;100110.13;;;18.19;52.93
11395;BME280;5753;54.402;10.220;2022-11-04T07:06:41;100106.88;;;19.59;48.86
11395;BME280;5753;54.402;10.220;2022-11-04T07:09:11;100107.16;;;19.76;48.80
11395;BME280;5753;54.402;10.220;2022-11-04T07:11:37;100106.06;;;16.99;56.01
11395;BME280;5753;54.402;10.220;2022-11-04T07:14:03;100123.78;;;19.47;48.71
11395;BME280;5753;54.402;10.220;2022-11-04T07:16:30;100132.00;;;19.63;48.44
11395;BME280;5753;54.402;10.220;2022-11-04T07:18:56;100133.13;;;19.26;49.49
11395;BME280;5753;54.402;10.220;2022-11-04T07:21:22;100130.81;;;18.25;51.95
11395;BME280;5753;54.402;10.220;2022-11-04T07:23:49;100134.91;;;18.34;51.99
11395;BME280;5753;54.402;10.220;2022-11-04T07:26:15;100138.38;;;18.67;50.43
11395;BME280;5753;54.402;10.220;2022-11-04T07:28:41;100133.63;;;17.47;53.83
11395;BME280;5753;54.402;10.220;2022-11-04T07:31:09;100137.25;;;18.45;51.46
11395;BME280;5753;54.402;10.220;2022-11-04T07:33:36;100138.84;;;19.11;50.11
11395;BME280;5753;54.402;10.220;2022-11-04T07:36:03;100147.53;;;18.18;52.54
11395;BME280;5753;54.402;10.220;2022-11-04T07:38:30;100158.50;;;19.23;49.29
11395;BME280;5753;54.402;10.220;2022-11-04T07:40:57;100157.16;;;19.93;47.37
11395;BME280;5753;54.402;10.220;2022-11-04T07:43:23;100164.53;;;19.80;47.66
11395;BME280;5753;54.402;10.220;2022-11-04T07:48:25;100152.41;;;18.31;51.29
11395;BME280;5753;54.402;10.220;2022-11-04T07:50:55;100172.56;;;18.58;49.89
11395;BME280;5753;54.402;10.220;2022-11-04T07:53:21;100170.03;;;18.55;49.82
11395;BME280;5753;54.402;10.220;2022-11-04T07:55:47;100175.94;;;17.95;52.29
11395;BME280;5753;54.402;10.220;2022-11-04T07:58:18;100172.66;;;19.99;47.24
11395;BME280;5753;54.402;10.220;2022-11-04T08:00:45;100170.81;;;19.19;49.06
11395;BME280;5753;54.402;10.220;2022-11-04T08:03:11;100176.56;;;19.30;49.29
11395;BME280;5753;54.402;10.220;2022-11-04T08:05:37;100189.00;;;19.52;47.80
11395;BME280;5753;54.402;10.220;2022-11-04T08:08:03;100206.09;;;19.04;48.52
11395;BME280;5753;54.402;10.220;2022-11-04T08:10:30;100190.69;;;18.95;49.17
11395;BME280;5753;54.402;10.220;2022-11-04T08:12:56;100199.72;;;17.83;52.19
11395;BME280;5753;54.402;10.220;2022-11-04T08:15:22;100196.88;;;18.91;49.37
11395;BME280;5753;54.402;10.220;2022-11-04T08:17:48;100192.06;;;18.11;51.88
11395;BME280;5753;54.402;10.220;2022-11-04T08:20:14;100216.16;;;18.20;50.80
11395;BME280;5753;54.402;10.220;2022-11-04T08:22:40;100215.19;;;17.89;52.07
11395;BME280;5753;54.402;10.220;2022-11-04T08:25:07;100216.78;;;19.82;47.44
11395;BME280;5753;54.402;10.220;2022-11-04T08:27:33;100215.91;;;19.26;48.79
11395;BME280;5753;54.402;10.220;2022-11-04T08:29:59;100212.28;;;19.30;48.91
11395;BME280;5753;54.402;10.220;2022-11-04T08:32:26;100203.16;;;18.84;49.72
11395;BME280;5753;54.402;10.220;2022-11-04T08:34:52;100201.84;;;18.03;52.45
11395;BME280;5753;54.402;10.220;2022-11-04T08:37:18;100201.03;;;16.82;55.78
11395;BME280;5753;54.402;10.220;2022-11-04T08:39:44;100203.88;;;17.13;54.49
11395;BME280;5753;54.402;10.220;2022-11-04T08:42:10;100212.66;;;18.55;50.61
11395;BME280;5753;54.402;10.220;2022-11-04T08:44:36;100201.97;;;18.31;50.63
11395;BME280;5753;54.402;10.220;2022-11-04T08:47:04;100218.13;;;19.39;48.55
11395;BME280;5753;54.402;10.220;2022-11-04T08:49:30;100226.75;;;19.12;49.89
11395;BME280;5753;54.402;10.220;2022-11-04T08:51:56;100230.13;;;19.15;49.24
11395;BME280;5753;54.402;10.220;2022-11-04T08:54:25;100231.53;;;18.31;50.45
11395;BME280;5753;54.402;10.220;2022-11-04T08:56:52;100227.41;;;17.87;52.10
11395;BME280;5753;54.402;10.220;2022-11-04T08:59:18;100239.72;;;19.74;47.43
11395;BME280;5753;54.402;10.220;2022-11-04T09:01:44;100235.84;;;19.28;49.07
11395;BME280;5753;54.402;10.220;2022-11-04T09:04:12;100237.63;;;19.85;48.19
11395;BME280;5753;54.402;10.220;2022-11-04T09:06:40;100236.41;;;19.10;48.98
11395;BME280;5753;54.402;10.220;2022-11-04T09:09:08;100239.31;;;18.68;49.99
11395;BME280;5753;54.402;10.220;2022-11-04T09:11:38;100256.34;;;18.81;49.13
11395;BME280;5753;54.402;10.220;2022-11-04T09:14:05;100240.47;;;19.49;48.17
11395;BME280;5753;54.402;10.220;2022-11-04T09:16:32;100241.66;;;19.39;48.67
11395;BME280;5753;54.402;10.220;2022-11-04T09:18:59;100247.00;;;20.19;47.43
11395;BME280;5753;54.402;10.220;2022-11-04T09:21:27;100259.41;;;18.65;50.48
11395;BME280;5753;54.402;10.220;2022-11-04T09:23:54;100256.47;;;19.96;47.56
11395;BME280;5753;54.402;10.220;2022-11-04T09:26:21;100263.22;;;19.75;48.43
11395;BME280;5753;54.402;10.220;2022-11-04T09:28:51;100260.44;;;20.34;46.75
11395;BME280;5753;54.402;10.220;2022-11-04T09:31:18;100266.78;;;19.43;48.29
11395;BME280;5753;54.402;10.220;2022-11-04T09:33:45;100272.25;;;18.72;50.25
11395;BME280;5753;54.402;10.220;2022-11-04T09:36:12;100277.47;;;18.72;50.48
11395;BME280;5753;54.402;10.220;2022-11-04T09:38:39;100290.72;;;20.43;46.65
11395;BME280;5753;54.402;10.220;2022-11-04T09:47:08;100303.00;;;21.64;43.45
11395;BME280;5753;54.402;10.220;2022-11-04T09:49:37;100305.13;;;19.12;49.17
11395;BME280;5753;54.402;10.220;2022-11-04T09:52:19;100308.88;;;19.33;48.35
11395;BME280;5753;54.402;10.220;2022-11-04T09:55:14;100322.31;;;19.52;49.16
11395;BME280;5753;54.402;10.220;2022-11-04T09:57:41;100324.19;;;20.86;45.56
11395;BME280;5753;54.402;10.220;2022-11-04T10:00:14;100318.28;;;21.53;44.04
11395;BME280;5753;54.402;10.220;2022-11-04T10:02:53;100324.66;;;20.46;46.48
11395;BME280;5753;54.402;10.220;2022-11-04T10:05:36;100333.09;;;20.26;47.34
11395;BME280;5753;54.402;10.220;2022-11-04T10:16:48;100340.63;;;21.63;44.82
11395;BME280;5753;54.402;10.220;2022-11-04T10:25:02;100347.72;;;20.61;46.90
11395;BME280;5753;54.402;10.220;2022-11-04T10:27:35;100346.56;;;19.88;48.45
11395;BME280;5753;54.402;10.220;2022-11-04T10:30:13;100366.69;;;19.55;49.52
11395;BME280;5753;54.402;10.220;2022-11-04T10:35:33;100370.03;;;19.60;50.59
11395;BME280;5753;54.402;10.220;2022-11-04T10:38:17;100357.97;;;20.13;48.79
11395;BME280;5753;54.402;10.220;2022-11-04T10:40:47;100356.16;;;18.57;52.31
11395;BME280;5753;54.402;10.220;2022-11-04T10:43:32;100372.44;;;20.53;48.00
11395;BME280;5753;54.402;10.220;2022-11-04T10:46:18;100365.63;;;20.73;46.90
11395;BME280;5753;54.402;10.220;2022-11-04T10:51:19;100364.91;;;20.95;46.26
11395;BME280;5753;54.402;10.220;2022-11-04T10:53:49;100359.19;;;20.29;47.50
11395;BME280;5753;54.402;10.220;2022-11-04T10:56:37;100361.44;;;19.84;48.56
11395;BME280;5753;54.402;10.220;2022-11-04T11:01:48;100361.50;;;20.40;47.78
11395;BME280;5753;54.402;10.220;2022-11-04T11:04:33;100355.22;;;19.90;48.94
11395;BME280;5753;54.402;10.220;2022-11-04T11:07:06;100356.50;;;19.75;48.69
11395;BME280;5753;54.402;10.220;2022-11-04T11:09:42;100362.81;;;19.35;48.64
11395;BME280;5753;54.402;10.220;2022-11-04T11:14:40;100356.09;;;20.17;47.68
11395;BME280;5753;54.402;10.220;2022-11-04T11:17:38;100353.13;;;19.40;49.72
11395;BME280;5753;54.402;10.220;2022-11-04T11:22:45;100370.50;;;20.30;47.52
11395;BME280;5753;54.402;10.220;2022-11-04T11:27:58;100386.94;;;21.14;45.97
11395;BME280;5753;54.402;10.220;2022-11-04T11:30:31;100379.34;;;20.82;46.93
11395;BME280;5753;54.402;10.220;2022-11-04T11:33:19;100376.72;;;19.99;48.08
11395;BME280;5753;54.402;10.220;2022-11-04T11:35:53;100388.09;;;19.67;49.17
11395;BME280;5753;54.402;10.220;2022-11-04T11:38:21;100387.03;;;20.32;47.67
11395;BME280;5753;54.402;10.220;2022-11-04T11:40:49;100404.31;;;20.37;46.93
11395;BME280;5753;54.402;10.220;2022-11-04T11:43:38;100402.94;;;20.82;46.93
11395;BME280;5753;54.402;10.220;2022-11-04T11:46:06;100398.16;;;20.40;47.48
11395;BME280;5753;54.402;10.220;2022-11-04T11:48:38;100405.09;;;19.82;49.06
11395;BME280;5753;54.402;10.220;2022-11-04T11:51:06;100407.91;;;20.35;48.10
11395;BME280;5753;54.402;10.220;2022-11-04T11:53:33;100395.94;;;21.57;45.23
11395;BME280;5753;54.402;10.220;2022-11-04T11:58:41;100413.97;;;20.63;46.61
11395;BME280;5753;54.402;10.220;2022-11-04T12:03:50;100427.88;;;20.65;46.91
11395;BME280;5753;54.402;10.220;2022-11-04T12:11:33;100430.16;;;21.02;46.45
11395;BME280;5753;54.402;10.220;2022-11-04T12:14:03;100433.16;;;20.36;47.70
11395;BME280;5753;54.402;10.220;2022-11-04T12:16:42;100448.06;;;20.34;47.32
11395;BME280;5753;54.402;10.220;2022-11-04T12:22:28;100433.78;;;19.87;48.73
11395;BME280;5753;54.402;10.220;2022-11-04T12:25:25;100455.88;;;20.63;47.58
11395;BME280;5753;54.402;10.220;2022-11-04T12:30:45;100464.06;;;21.07;46.12
11395;BME280;5753;54.402;10.220;2022-11-04T12:33:34;100455.41;;;21.05;46.82
11395;BME280;5753;54.402;10.220;2022-11-04T12:36:09;100466.22;;;22.64;42.86
11395;BME280;5753;54.402;10.220;2022-11-04T13:01:17;100491.69;;;23.70;41.29
11395;BME280;5753;54.402;10.220;2022-11-04T13:03:54;100495.53;;;23.61;40.71
11395;BME280;5753;54.402;10.220;2022-11-04T13:06:51;100507.91;;;22.51;42.04
11395;BME280;5753;54.402;10.220;2022-11-04T13:09:45;100500.47;;;23.48;40.52
11395;BME280;5753;54.402;10.220;2022-11-04T13:12:30;100511.41;;;24.19;39.67
11395;BME280;5753;54.402;10.220;2022-11-04T13:15:02;100502.69;;;24.92;38.57
11395;BME280;5753;54.402;10.220;2022-11-04T13:17:33;100512.66;;;22.87;42.31
11395;BME280;5753;54.402;10.220;2022-11-04T13:22:36;100511.78;;;25.75;37.31
11395;BME280;5753;54.402;10.220;2022-11-04T13:25:20;100518.28;;;25.33;37.65
11395;BME280;5753;54.402;10.220;2022-11-04T13:27:49;100522.53;;;26.69;35.58
11395;BME280;5753;54.402;10.220;2022-11-04T13:30:36;100521.97;;;24.75;38.29
11395;BME280;5753;54.402;10.220;2022-11-04T13:36:14;100544.44;;;22.57;42.45
11395;BME280;5753;54.402;10.220;2022-11-04T13:39:05;100535.59;;;21.39;45.42
11395;BME280;5753;54.402;10.220;2022-11-04T13:44:27;100559.28;;;21.08;48.96
11395;BME280;5753;54.402;10.220;2022-11-04T13:46:57;100557.09;;;20.35;49.23
11395;BME280;5753;54.402;10.220;2022-11-04T13:49:27;100557.00;;;20.38;49.82
11395;BME280;5753;54.402;10.220;2022-11-04T13:52:13;100554.88;;;20.82;47.81
11395;BME280;5753;54.402;10.220;2022-11-04T13:57:32;100574.66;;;18.94;53.08
11395;BME280;5753;54.402;10.220;2022-11-04T14:02:42;100587.22;;;20.19;51.43
11395;BME280;5753;54.402;10.220;2022-11-04T14:08:11;100586.47;;;20.46;49.82
11395;BME280;5753;54.402;10.220;2022-11-04T14:16:00;100606.47;;;19.48;51.31
11395;BME280;5753;54.402;10.220;2022-11-04T14:18:29;100601.19;;;20.18;49.40
11395;BME280;5753;54.402;10.220;2022-11-04T14:21:13;100594.34;;;21.84;45.61
11395;BME280;5753;54.402;10.220;2022-11-04T14:23:45;100602.97;;;20.78;46.82
11395;BME280;5753;54.402;10.220;2022-11-04T14:26:14;100605.69;;;20.74;46.13
11395;BME280;5753;54.402;10.220;2022-11-04T14:28:44;100602.66;;;22.22;43.73
11395;BME280;5753;54.402;10.220;2022-11-04T14:31:13;100616.41;;;22.30;43.04
11395;BME280;5753;54.402;10.220;2022-11-04T14:33:58;100615.28;;;21.59;44.93
11395;BME280;5753;54.402;10.220;2022-11-04T14:36:33;100615.03;;;23.77;40.75
11395;BME280;5753;54.402;10.220;2022-11-04T14:41:53;100614.16;;;24.77;39.37
11395;BME280;5753;54.402;10.220;2022-11-04T14:47:21;100621.31;;;24.15;39.80
11395;BME280;5753;54.402;10.220;2022-11-04T14:50:03;100619.91;;;23.22;41.53
11395;BME280;5753;54.402;10.220;2022-11-04T14:52:51;100629.19;;;23.95;40.83
11395;BME280;5753;54.402;10.220;2022-11-04T14:55:20;100625.41;;;22.46;43.57
11395;BME280;5753;54.402;10.220;2022-11-04T14:57:49;100630.78;;;23.35;41.11
11395;BME280;5753;54.402;10.220;2022-11-04T15:05:54;100649.13;;;24.01;39.26
11395;BME280;5753;54.402;10.220;2022-11-04T15:08:43;100645.19;;;24.52;37.90
11395;BME280;5753;54.402;10.220;2022-11-04T15:13:44;100653.38;;;22.24;41.82
11395;BME280;5753;54.402;10.220;2022-11-04T15:16:17;100656.50;;;22.09;41.89
11395;BME280;5753;54.402;10.220;2022-11-04T15:18:44;100658.13;;;22.13;41.95
11395;BME280;5753;54.402;10.220;2022-11-04T15:21:11;100659.09;;;22.35;41.54
11395;BME280;5753;54.402;10.220;2022-11-04T15:23:42;100658.84;;;21.91;42.20
11395;BME280;5753;54.402;10.220;2022-11-04T15:28:47;100666.22;;;22.80;40.53
11395;BME280;5753;54.402;10.220;2022-11-04T15:31:23;100670.84;;;21.98;42.39
11395;BME280;5753;54.402;10.220;2022-11-04T15:33:53;100674.25;;;22.00;42.32
11395;BME280;5753;54.402;10.220;2022-11-04T15:36:26;100675.38;;;21.67;43.14
11395;BME280;5753;54.402;10.220;2022-11-04T15:41:26;100679.63;;;21.97;42.77
11395;BME280;5753;54.402;10.220;2022-11-04T15:44:23;100682.25;;;21.14;44.75
11395;BME280;5753;54.402;10.220;2022-11-04T15:46:55;100689.47;;;21.07;44.81